メインページ
METAR-TAF:

METAR-TAF

空港 :

ジンナー国際空港

カラチ, パキスタン

緯度: 24-54N, 経度: 067-08E, 海抜: 21m

現時点の気象観測

当レポートは27分前の23:25(UTC)に作成
西/南西の風 7kt
気温 29°C
湿度 79%
気圧 996 hPa
視程: 5000m
高度2000ftの雲はほとんどない
高度3000ftの雲は散在している
煙霧

METAR: OPKC 162325Z 24007KT 5000 HZ FEW020 SCT030 29/25 Q0996 NOSIG

時間: 04:52 (23:52 UTC)

予報

当レポートは1時間52分前の22:00(UTC)に作成
予報は17日の 00時(UTC)から 18日の 06時(UTC)まで有効
南西の風 5kt、最大15ktの突風を伴う
視程: 6000m
高度2000ftの雲は散在している
高度10000ftの千切れ雲あり
17日の 00時(UTC)から 17日の 04時(UTC)まで一時的に
南西の風 8kt
視程: 4000m
高度3000ftの雲は散在している
高度10000ftの千切れ雲あり
煙霧
17日の 18時(UTC)から 17日の 20時(UTC)まで徐々に
西/南西の風 8kt
視程: 4000m
高度2000ftの雲は散在している
高度10000ftの千切れ雲あり
煙霧

TAF: OPKC 162200Z 1700/1806 23005G15KT 6000 SCT020 BKN100 TEMPO 1700/1704 23008KT 4000 HZ SCT030 BKN100 BECMG 1718/1720 25008KT 4000 HZ SCT020 BKN100

4,000以上の空港の気象観測と天気予報(METAR報とTAF報)

利用可能な観測所は地図上に黄色い丸と赤い丸で示す。

丸の上にカーソルを重ねると観測所名を参照できる。

次にクリックすると気象観測と天気予報を参照できる。

マップの切り替え:黒色「×」印の緑ボタンをクリックして拡大、「-」印の緑ボタンをクリックして縮小、緑色の三角印をクリックして隣りの地図に切り替え


METAR-TAF: